Aviation Digital Data Service (ADDS)

Output produced by METARs form (1009 UTC 22 May 2018)
found at http://www.aviationweather.gov/adds/metars/
 
KCXY 220956Z AUTO 10006KT 10SM FEW034 SCT041 BKN060 19/17 A3009 RMK AO2 SLP190 T01890167
KCXY 220944Z AUTO 08006KT 10SM FEW029 BKN034 OVC060 19/17 A3009 RMK AO2 T01890167
KCXY 220856Z AUTO 08005KT 9SM OVC029 19/17 A3009 RMK AO2 RAE11 SLP188 P0000 60013 T01890167 56010
KCXY 220756Z AUTO 09006KT 10SM -RA OVC030 19/17 A3009 RMK AO2 RAE30B49 TSB00E22 SLP188 P0013 T01890167
KCXY 220722Z AUTO 10005KT 8SM -RA FEW025 OVC036 19/16 A3010 RMK AO2 TSB00E22 P0013 T01890161
KCXY 220715Z AUTO 11005KT 2SM R08/6000VP6000FT +TSRA FEW023 BKN038 OVC046 19/16 A3010 RMK AO2 TSB00 P0013 T01890161
KCXY 220706Z AUTO 11006KT 5SM R08/6000VP6000FT -TSRA FEW025 OVC039 20/15 A3011 RMK AO2 TSB00 P0005 T02000150
KCXY 220656Z AUTO 08004KT 10SM VCTS -RA BKN039 OVC050 20/15 A3011 RMK AO2 RAB51 SLP196 P0000 T02000150
KCXY 220634Z AUTO 11005KT 10SM VCTS BKN060 BKN085 20/14 A3011 RMK AO2 LTG DSNT W T02000144
KCXY 220556Z AUTO 11003KT 10SM OVC065 21/14 A3012 RMK AO2 SLP199 T02060144 10244 20206 56007
KCXY 220456Z AUTO 10005KT 10SM OVC060 21/14 A3013 RMK AO2 SLP201 T02110139 402720139
KCXY 220356Z AUTO 14005KT 10SM BKN060 22/14 A3013 RMK AO2 SLP203 T02220139
KCXY 220256Z AUTO 18006KT 10SM SCT060 23/13 A3014 RMK AO2 SLP206 T02280133 53006
KCXY 220156Z AUTO 12003KT 10SM OVC050 22/12 A3013 RMK AO2 SLP203 T02220122
KCXY 220056Z 00000KT 10SM CLR 22/13 A3013 RMK AO2 SLP201 T02220133
KCXY 212356Z 16004KT 10SM CLR 24/12 A3013 RMK AO2 SLP201 T02390122 10272 20239 54000
KCXY 212256Z 00000KT 10SM CLR 27/11 A3012 RMK AO2 SLP200 T02670111
KCXY 212156Z 00000KT 10SM CLR 26/12 A3013 RMK AO2 SLP201 T02610117
KCXY 212056Z 00000KT 10SM CLR 27/11 A3012 RMK AO2 SLP200 T02670111 58020
KCXY 211956Z 02006KT 10SM CLR 26/11 A3014 RMK AO2 SLP207 T02610111
KCXY 211856Z 34006KT 10SM CLR 26/11 A3017 RMK AO2 SLP214 T02560106
KCXY 211756Z 35006KT 10SM CLR 25/11 A3018 RMK AO2 SLP220 T02500106 10250 20189 58016
KCXY 211656Z 00000KT 10SM SCT045 24/12 A3020 RMK AO2 SLP227 T02390117
KCXY 211556Z COR VRB03KT 10SM SCT045 23/12 A3023 RMK AO2 SLP235 T02330122
KCXY 211456Z 00000KT 10SM SCT090 22/12 A3023 RMK AO2 SLP236 T02170117 50004
KCXY 211356Z 10004KT 10SM BKN090 20/12 A3023 RMK AO2 SLP237 T02000117
KCXY 211256Z 04005KT 10SM SCT090 20/12 A3022 RMK AO2 SLP234 T02000122
KCXY 211156Z 00000KT 10SM SCT120 19/13 A3022 RMK AO2 SLP232 T01890133 10189 20139 51019
KCXY 211056Z 00000KT 10SM FEW120 16/13 A3020 RMK AO2 SLP226 T01610133
KCXY 210956Z AUTO 00000KT 10SM CLR 14/12 A3019 RMK AO2 SLP221 T01440122
KCXY 210856Z AUTO 00000KT 10SM CLR 14/12 A3016 RMK AO2 SLP212 T01440122 53015
KCXY 210756Z AUTO 00000KT 10SM CLR 15/13 A3014 RMK AO2 SLP205 T01500128
KCXY 210656Z AUTO 00000KT 10SM CLR 17/12 A3012 RMK AO2 SLP198 T01720122
KCXY 210556Z AUTO 00000KT 10SM CLR 17/14 A3012 RMK AO2 SLP197 T01670139 10261 20161 51013
KCXY 210456Z AUTO 00000KT 10SM CLR 17/14 A3011 RMK AO2 SLP194 T01670144 402940161
KCXY 210356Z AUTO 00000KT 10SM CLR 18/15 A3010 RMK AO2 SLP192 T01780150
KCXY 210256Z AUTO 33003KT 10SM CLR 19/16 A3008 RMK AO2 SLP184 T01940156 51019
KCXY 210156Z AUTO 34004KT 10SM CLR 23/15 A3007 RMK AO2 SLP181 T02330150
KCXY 210056Z 30006KT 10SM CLR 24/14 A3004 RMK AO2 SLP172 T02390144
KCXY 202356Z 30005KT 10SM CLR 26/15 A3002 RMK AO2 SLP166 T02560150 10294 20256 51009
KCXY 202256Z 31011KT 10SM FEW060 28/15 A3001 RMK AO2 SLP162 T02780150